sensor_id;sensor_type;location;lat;lon;timestamp;P1;durP1;ratioP1;P2;durP2;ratioP2
67248;SDS011;63247;54.300;18.592;2024-03-07T00:00:04;32.70;;;11.32;;
67248;SDS011;63247;54.300;18.592;2024-03-07T00:02:42;33.10;;;10.77;;
67248;SDS011;63247;54.300;18.592;2024-03-07T00:05:10;28.25;;;10.70;;
67248;SDS011;63247;54.300;18.592;2024-03-07T00:07:37;28.58;;;10.95;;
67248;SDS011;63247;54.300;18.592;2024-03-07T00:10:04;29.30;;;11.00;;
67248;SDS011;63247;54.300;18.592;2024-03-07T00:12:32;32.70;;;11.20;;
67248;SDS011;63247;54.300;18.592;2024-03-07T00:15:05;31.60;;;10.90;;
67248;SDS011;63247;54.300;18.592;2024-03-07T00:17:31;31.17;;;11.00;;
67248;SDS011;63247;54.300;18.592;2024-03-07T00:19:56;29.50;;;10.83;;
67248;SDS011;63247;54.300;18.592;2024-03-07T00:22:22;30.63;;;11.20;;
67248;SDS011;63247;54.300;18.592;2024-03-07T00:24:51;27.77;;;11.00;;
67248;SDS011;63247;54.300;18.592;2024-03-07T00:27:17;29.70;;;11.20;;
67248;SDS011;63247;54.300;18.592;2024-03-07T00:29:42;31.03;;;11.17;;
67248;SDS011;63247;54.300;18.592;2024-03-07T00:32:09;31.00;;;11.23;;
67248;SDS011;63247;54.300;18.592;2024-03-07T00:34:35;29.77;;;11.18;;
67248;SDS011;63247;54.300;18.592;2024-03-07T00:37:00;30.07;;;11.00;;
67248;SDS011;63247;54.300;18.592;2024-03-07T00:39:27;34.03;;;11.60;;
67248;SDS011;63247;54.300;18.592;2024-03-07T00:41:53;30.90;;;11.23;;
67248;SDS011;63247;54.300;18.592;2024-03-07T00:44:18;29.93;;;11.57;;
67248;SDS011;63247;54.300;18.592;2024-03-07T00:46:43;29.60;;;11.75;;
67248;SDS011;63247;54.300;18.592;2024-03-07T00:49:09;29.63;;;11.77;;
67248;SDS011;63247;54.300;18.592;2024-03-07T00:51:34;32.70;;;11.50;;
67248;SDS011;63247;54.300;18.592;2024-03-07T00:54:00;31.70;;;11.60;;
67248;SDS011;63247;54.300;18.592;2024-03-07T00:56:25;36.87;;;12.03;;
67248;SDS011;63247;54.300;18.592;2024-03-07T00:58:51;32.33;;;11.43;;
67248;SDS011;63247;54.300;18.592;2024-03-07T01:01:17;29.57;;;11.50;;
67248;SDS011;63247;54.300;18.592;2024-03-07T01:03:43;30.80;;;11.20;;
67248;SDS011;63247;54.300;18.592;2024-03-07T01:06:09;29.23;;;11.35;;
67248;SDS011;63247;54.300;18.592;2024-03-07T01:08:35;32.53;;;11.43;;
67248;SDS011;63247;54.300;18.592;2024-03-07T01:11:02;29.98;;;11.60;;
67248;SDS011;63247;54.300;18.592;2024-03-07T01:13:35;34.78;;;11.88;;
67248;SDS011;63247;54.300;18.592;2024-03-07T01:16:01;30.83;;;11.90;;
67248;SDS011;63247;54.300;18.592;2024-03-07T01:18:27;35.23;;;11.80;;
67248;SDS011;63247;54.300;18.592;2024-03-07T01:20:52;33.67;;;11.93;;
67248;SDS011;63247;54.300;18.592;2024-03-07T01:23:18;30.48;;;12.27;;
67248;SDS011;63247;54.300;18.592;2024-03-07T01:25:43;37.07;;;13.60;;
67248;SDS011;63247;54.300;18.592;2024-03-07T01:28:09;31.30;;;12.60;;
67248;SDS011;63247;54.300;18.592;2024-03-07T01:30:37;36.05;;;12.60;;
67248;SDS011;63247;54.300;18.592;2024-03-07T01:33:03;35.53;;;12.73;;
67248;SDS011;63247;54.300;18.592;2024-03-07T01:35:28;33.38;;;12.57;;
67248;SDS011;63247;54.300;18.592;2024-03-07T01:37:54;33.37;;;12.17;;
67248;SDS011;63247;54.300;18.592;2024-03-07T01:40:19;29.33;;;12.03;;
67248;SDS011;63247;54.300;18.592;2024-03-07T01:42:47;33.10;;;11.82;;
67248;SDS011;63247;54.300;18.592;2024-03-07T01:45:16;35.92;;;12.05;;
67248;SDS011;63247;54.300;18.592;2024-03-07T01:47:43;36.13;;;11.77;;
67248;SDS011;63247;54.300;18.592;2024-03-07T01:50:09;35.05;;;12.63;;
67248;SDS011;63247;54.300;18.592;2024-03-07T01:52:35;32.88;;;12.38;;
67248;SDS011;63247;54.300;18.592;2024-03-07T01:55:04;30.03;;;11.80;;
67248;SDS011;63247;54.300;18.592;2024-03-07T01:57:30;33.50;;;12.50;;
67248;SDS011;63247;54.300;18.592;2024-03-07T01:59:56;36.03;;;12.73;;
67248;SDS011;63247;54.300;18.592;2024-03-07T02:02:22;32.87;;;11.73;;
67248;SDS011;63247;54.300;18.592;2024-03-07T02:04:47;32.85;;;12.95;;
67248;SDS011;63247;54.300;18.592;2024-03-07T02:07:13;33.10;;;12.33;;
67248;SDS011;63247;54.300;18.592;2024-03-07T02:09:38;31.93;;;12.50;;
67248;SDS011;63247;54.300;18.592;2024-03-07T02:12:03;32.03;;;12.73;;
67248;SDS011;63247;54.300;18.592;2024-03-07T02:14:29;33.53;;;12.55;;
67248;SDS011;63247;54.300;18.592;2024-03-07T02:16:55;32.43;;;12.53;;
67248;SDS011;63247;54.300;18.592;2024-03-07T02:19:24;34.92;;;13.38;;
67248;SDS011;63247;54.300;18.592;2024-03-07T02:21:49;37.57;;;13.47;;
67248;SDS011;63247;54.300;18.592;2024-03-07T02:24:14;35.80;;;13.70;;
67248;SDS011;63247;54.300;18.592;2024-03-07T02:26:40;37.80;;;14.48;;
67248;SDS011;63247;54.300;18.592;2024-03-07T02:29:06;39.67;;;13.73;;
67248;SDS011;63247;54.300;18.592;2024-03-07T02:31:32;39.80;;;13.88;;
67248;SDS011;63247;54.300;18.592;2024-03-07T02:34:02;36.47;;;13.57;;
67248;SDS011;63247;54.300;18.592;2024-03-07T02:36:28;42.42;;;14.32;;
67248;SDS011;63247;54.300;18.592;2024-03-07T02:38:53;37.70;;;14.50;;
67248;SDS011;63247;54.300;18.592;2024-03-07T02:41:19;39.30;;;13.87;;
67248;SDS011;63247;54.300;18.592;2024-03-07T02:43:45;42.30;;;14.75;;
67248;SDS011;63247;54.300;18.592;2024-03-07T02:46:11;37.20;;;14.20;;
67248;SDS011;63247;54.300;18.592;2024-03-07T02:48:37;40.17;;;14.40;;
67248;SDS011;63247;54.300;18.592;2024-03-07T02:51:03;42.30;;;14.80;;
67248;SDS011;63247;54.300;18.592;2024-03-07T02:53:31;41.55;;;14.18;;
67248;SDS011;63247;54.300;18.592;2024-03-07T02:55:57;42.97;;;14.57;;
67248;SDS011;63247;54.300;18.592;2024-03-07T02:58:23;41.03;;;14.32;;
67248;SDS011;63247;54.300;18.592;2024-03-07T03:00:59;41.50;;;14.57;;
67248;SDS011;63247;54.300;18.592;2024-03-07T03:03:25;38.35;;;14.05;;
67248;SDS011;63247;54.300;18.592;2024-03-07T03:05:56;42.38;;;13.90;;
67248;SDS011;63247;54.300;18.592;2024-03-07T03:08:22;42.35;;;13.60;;
67248;SDS011;63247;54.300;18.592;2024-03-07T03:10:48;39.90;;;14.30;;
67248;SDS011;63247;54.300;18.592;2024-03-07T03:13:16;40.67;;;13.60;;
67248;SDS011;63247;54.300;18.592;2024-03-07T03:15:41;40.38;;;13.50;;
67248;SDS011;63247;54.300;18.592;2024-03-07T03:18:07;39.20;;;13.43;;
67248;SDS011;63247;54.300;18.592;2024-03-07T03:20:32;38.93;;;13.73;;
67248;SDS011;63247;54.300;18.592;2024-03-07T03:23:04;35.90;;;13.48;;
67248;SDS011;63247;54.300;18.592;2024-03-07T03:25:30;39.58;;;14.98;;
67248;SDS011;63247;54.300;18.592;2024-03-07T03:28:02;36.75;;;13.63;;
67248;SDS011;63247;54.300;18.592;2024-03-07T03:30:29;38.23;;;13.40;;
67248;SDS011;63247;54.300;18.592;2024-03-07T03:32:54;39.17;;;13.75;;
67248;SDS011;63247;54.300;18.592;2024-03-07T03:35:20;38.23;;;13.37;;
67248;SDS011;63247;54.300;18.592;2024-03-07T03:37:46;37.83;;;13.02;;
67248;SDS011;63247;54.300;18.592;2024-03-07T03:40:11;36.13;;;13.37;;
67248;SDS011;63247;54.300;18.592;2024-03-07T03:42:40;37.50;;;12.85;;
67248;SDS011;63247;54.300;18.592;2024-03-07T03:45:07;36.83;;;13.80;;
67248;SDS011;63247;54.300;18.592;2024-03-07T03:47:34;35.78;;;12.50;;
67248;SDS011;63247;54.300;18.592;2024-03-07T03:50:04;34.08;;;12.95;;
67248;SDS011;63247;54.300;18.592;2024-03-07T03:52:31;33.65;;;13.52;;
67248;SDS011;63247;54.300;18.592;2024-03-07T03:54:57;37.55;;;13.15;;
67248;SDS011;63247;54.300;18.592;2024-03-07T03:57:24;33.47;;;12.77;;
67248;SDS011;63247;54.300;18.592;2024-03-07T03:59:51;37.90;;;13.68;;
67248;SDS011;63247;54.300;18.592;2024-03-07T04:02:17;35.05;;;12.60;;
67248;SDS011;63247;54.300;18.592;2024-03-07T04:04:42;38.87;;;13.17;;
67248;SDS011;63247;54.300;18.592;2024-03-07T04:07:09;39.78;;;14.23;;
67248;SDS011;63247;54.300;18.592;2024-03-07T04:09:34;39.73;;;13.93;;
67248;SDS011;63247;54.300;18.592;2024-03-07T04:12:00;38.40;;;14.65;;
67248;SDS011;63247;54.300;18.592;2024-03-07T04:14:25;35.97;;;13.10;;
67248;SDS011;63247;54.300;18.592;2024-03-07T04:16:51;40.50;;;13.53;;
67248;SDS011;63247;54.300;18.592;2024-03-07T04:19:17;37.60;;;13.20;;
67248;SDS011;63247;54.300;18.592;2024-03-07T04:21:45;40.17;;;13.80;;
67248;SDS011;63247;54.300;18.592;2024-03-07T04:24:11;38.22;;;13.55;;
67248;SDS011;63247;54.300;18.592;2024-03-07T04:26:37;36.78;;;13.40;;
67248;SDS011;63247;54.300;18.592;2024-03-07T04:29:02;37.50;;;12.77;;
67248;SDS011;63247;54.300;18.592;2024-03-07T04:31:28;38.65;;;12.32;;
67248;SDS011;63247;54.300;18.592;2024-03-07T04:33:54;35.25;;;13.27;;
67248;SDS011;63247;54.300;18.592;2024-03-07T04:36:19;36.23;;;12.27;;
67248;SDS011;63247;54.300;18.592;2024-03-07T04:38:44;37.83;;;13.60;;
67248;SDS011;63247;54.300;18.592;2024-03-07T04:41:10;39.57;;;12.70;;
67248;SDS011;63247;54.300;18.592;2024-03-07T04:43:36;36.35;;;12.55;;
67248;SDS011;63247;54.300;18.592;2024-03-07T04:46:02;36.13;;;13.17;;
67248;SDS011;63247;54.300;18.592;2024-03-07T04:48:28;37.30;;;12.40;;
67248;SDS011;63247;54.300;18.592;2024-03-07T04:50:53;34.80;;;12.37;;
67248;SDS011;63247;54.300;18.592;2024-03-07T04:53:20;36.15;;;12.52;;
67248;SDS011;63247;54.300;18.592;2024-03-07T04:55:45;33.73;;;12.87;;
67248;SDS011;63247;54.300;18.592;2024-03-07T04:58:11;31.30;;;12.30;;
67248;SDS011;63247;54.300;18.592;2024-03-07T05:00:36;33.27;;;12.07;;
67248;SDS011;63247;54.300;18.592;2024-03-07T05:03:02;36.92;;;11.80;;
67248;SDS011;63247;54.300;18.592;2024-03-07T05:05:27;33.87;;;12.00;;
67248;SDS011;63247;54.300;18.592;2024-03-07T05:07:53;35.05;;;12.27;;
67248;SDS011;63247;54.300;18.592;2024-03-07T05:10:18;33.08;;;11.77;;
67248;SDS011;63247;54.300;18.592;2024-03-07T05:12:45;33.80;;;12.15;;
67248;SDS011;63247;54.300;18.592;2024-03-07T05:15:10;30.13;;;11.93;;
67248;SDS011;63247;54.300;18.592;2024-03-07T05:17:36;32.80;;;12.10;;
67248;SDS011;63247;54.300;18.592;2024-03-07T05:20:04;36.75;;;12.15;;
67248;SDS011;63247;54.300;18.592;2024-03-07T05:22:35;30.85;;;11.25;;
67248;SDS011;63247;54.300;18.592;2024-03-07T05:25:15;35.67;;;12.13;;
67248;SDS011;63247;54.300;18.592;2024-03-07T05:27:44;29.85;;;11.65;;
67248;SDS011;63247;54.300;18.592;2024-03-07T05:30:10;30.58;;;11.25;;
67248;SDS011;63247;54.300;18.592;2024-03-07T05:32:38;32.35;;;11.40;;
67248;SDS011;63247;54.300;18.592;2024-03-07T05:35:04;33.95;;;11.95;;
67248;SDS011;63247;54.300;18.592;2024-03-07T05:37:30;32.70;;;10.93;;
67248;SDS011;63247;54.300;18.592;2024-03-07T05:39:56;29.45;;;11.50;;
67248;SDS011;63247;54.300;18.592;2024-03-07T05:42:22;33.17;;;12.13;;
67248;SDS011;63247;54.300;18.592;2024-03-07T05:44:50;32.63;;;11.40;;
67248;SDS011;63247;54.300;18.592;2024-03-07T05:47:15;33.97;;;11.48;;
67248;SDS011;63247;54.300;18.592;2024-03-07T05:49:42;29.63;;;11.02;;
67248;SDS011;63247;54.300;18.592;2024-03-07T05:52:07;28.70;;;10.40;;
67248;SDS011;63247;54.300;18.592;2024-03-07T05:54:33;25.95;;;10.45;;
67248;SDS011;63247;54.300;18.592;2024-03-07T05:56:59;28.53;;;10.93;;
67248;SDS011;63247;54.300;18.592;2024-03-07T05:59:25;30.42;;;10.13;;
67248;SDS011;63247;54.300;18.592;2024-03-07T06:01:53;25.85;;;10.13;;
67248;SDS011;63247;54.300;18.592;2024-03-07T06:04:19;24.67;;;10.03;;
67248;SDS011;63247;54.300;18.592;2024-03-07T06:06:45;29.02;;;11.52;;
67248;SDS011;63247;54.300;18.592;2024-03-07T06:09:13;27.13;;;11.35;;
67248;SDS011;63247;54.300;18.592;2024-03-07T06:11:39;25.60;;;10.88;;
67248;SDS011;63247;54.300;18.592;2024-03-07T06:14:09;24.53;;;10.10;;
67248;SDS011;63247;54.300;18.592;2024-03-07T06:16:38;23.33;;;9.60;;
67248;SDS011;63247;54.300;18.592;2024-03-07T06:19:04;24.02;;;9.80;;
67248;SDS011;63247;54.300;18.592;2024-03-07T06:21:32;21.25;;;9.30;;
67248;SDS011;63247;54.300;18.592;2024-03-07T06:23:58;22.10;;;9.02;;
67248;SDS011;63247;54.300;18.592;2024-03-07T06:26:34;27.73;;;9.87;;
67248;SDS011;63247;54.300;18.592;2024-03-07T06:29:13;23.20;;;9.38;;
67248;SDS011;63247;54.300;18.592;2024-03-07T06:31:41;22.70;;;9.32;;
67248;SDS011;63247;54.300;18.592;2024-03-07T06:34:07;22.25;;;8.98;;
67248;SDS011;63247;54.300;18.592;2024-03-07T06:36:36;21.50;;;9.02;;
67248;SDS011;63247;54.300;18.592;2024-03-07T06:39:02;26.17;;;9.50;;
67248;SDS011;63247;54.300;18.592;2024-03-07T06:41:32;19.08;;;8.23;;
67248;SDS011;63247;54.300;18.592;2024-03-07T06:43:58;21.27;;;8.60;;
67248;SDS011;63247;54.300;18.592;2024-03-07T06:46:23;23.17;;;8.97;;
67248;SDS011;63247;54.300;18.592;2024-03-07T06:48:49;23.20;;;8.60;;
67248;SDS011;63247;54.300;18.592;2024-03-07T06:51:16;20.52;;;8.90;;
67248;SDS011;63247;54.300;18.592;2024-03-07T06:53:42;19.90;;;9.17;;
67248;SDS011;63247;54.300;18.592;2024-03-07T06:56:08;21.13;;;8.30;;
67248;SDS011;63247;54.300;18.592;2024-03-07T06:58:34;20.33;;;8.55;;
67248;SDS011;63247;54.300;18.592;2024-03-07T07:00:59;19.50;;;8.00;;
67248;SDS011;63247;54.300;18.592;2024-03-07T07:03:26;18.33;;;8.02;;
67248;SDS011;63247;54.300;18.592;2024-03-07T07:05:53;19.60;;;8.40;;
67248;SDS011;63247;54.300;18.592;2024-03-07T07:08:19;21.92;;;9.23;;
67248;SDS011;63247;54.300;18.592;2024-03-07T07:10:45;18.75;;;8.75;;
67248;SDS011;63247;54.300;18.592;2024-03-07T07:13:11;19.73;;;8.90;;
67248;SDS011;63247;54.300;18.592;2024-03-07T07:15:38;20.58;;;7.85;;
67248;SDS011;63247;54.300;18.592;2024-03-07T07:18:04;18.15;;;6.85;;
67248;SDS011;63247;54.300;18.592;2024-03-07T07:20:30;20.13;;;7.03;;
67248;SDS011;63247;54.300;18.592;2024-03-07T07:22:57;15.03;;;6.30;;
67248;SDS011;63247;54.300;18.592;2024-03-07T07:25:25;13.85;;;5.40;;
67248;SDS011;63247;54.300;18.592;2024-03-07T07:27:52;13.90;;;6.43;;
67248;SDS011;63247;54.300;18.592;2024-03-07T07:30:18;16.13;;;6.55;;
67248;SDS011;63247;54.300;18.592;2024-03-07T07:32:47;23.23;;;6.60;;
67248;SDS011;63247;54.300;18.592;2024-03-07T07:35:14;14.35;;;5.90;;
67248;SDS011;63247;54.300;18.592;2024-03-07T07:37:58;14.60;;;6.28;;
67248;SDS011;63247;54.300;18.592;2024-03-07T07:40:24;17.40;;;7.53;;
67248;SDS011;63247;54.300;18.592;2024-03-07T07:42:52;18.75;;;7.05;;
67248;SDS011;63247;54.300;18.592;2024-03-07T07:45:19;19.60;;;7.47;;
67248;SDS011;63247;54.300;18.592;2024-03-07T07:47:49;11.93;;;5.07;;
67248;SDS011;63247;54.300;18.592;2024-03-07T07:50:16;11.70;;;5.32;;
67248;SDS011;63247;54.300;18.592;2024-03-07T07:52:47;14.43;;;7.25;;
67248;SDS011;63247;54.300;18.592;2024-03-07T07:55:19;20.55;;;7.53;;
67248;SDS011;63247;54.300;18.592;2024-03-07T07:57:49;13.00;;;5.67;;
67248;SDS011;63247;54.300;18.592;2024-03-07T08:00:20;11.57;;;5.88;;
67248;SDS011;63247;54.300;18.592;2024-03-07T08:02:51;12.02;;;5.68;;
67248;SDS011;63247;54.300;18.592;2024-03-07T08:05:18;11.77;;;5.72;;
67248;SDS011;63247;54.300;18.592;2024-03-07T08:07:45;13.30;;;6.20;;
67248;SDS011;63247;54.300;18.592;2024-03-07T08:10:12;11.43;;;5.23;;
67248;SDS011;63247;54.300;18.592;2024-03-07T08:12:39;13.02;;;6.47;;
67248;SDS011;63247;54.300;18.592;2024-03-07T08:15:08;18.58;;;10.25;;
67248;SDS011;63247;54.300;18.592;2024-03-07T08:17:34;16.42;;;6.47;;
67248;SDS011;63247;54.300;18.592;2024-03-07T08:19:59;11.50;;;5.03;;
67248;SDS011;63247;54.300;18.592;2024-03-07T08:22:25;22.37;;;9.67;;
67248;SDS011;63247;54.300;18.592;2024-03-07T08:24:51;16.25;;;6.35;;
67248;SDS011;63247;54.300;18.592;2024-03-07T08:27:17;15.88;;;7.13;;
67248;SDS011;63247;54.300;18.592;2024-03-07T08:29:43;15.15;;;7.28;;
67248;SDS011;63247;54.300;18.592;2024-03-07T08:32:08;10.73;;;5.53;;
67248;SDS011;63247;54.300;18.592;2024-03-07T08:34:33;10.10;;;4.60;;
67248;SDS011;63247;54.300;18.592;2024-03-07T08:36:59;12.97;;;5.40;;
67248;SDS011;63247;54.300;18.592;2024-03-07T08:39:24;10.93;;;5.17;;
67248;SDS011;63247;54.300;18.592;2024-03-07T08:41:50;14.77;;;6.07;;
67248;SDS011;63247;54.300;18.592;2024-03-07T08:44:15;14.98;;;5.90;;
67248;SDS011;63247;54.300;18.592;2024-03-07T08:46:41;13.00;;;5.00;;
67248;SDS011;63247;54.300;18.592;2024-03-07T08:49:06;10.87;;;4.77;;
67248;SDS011;63247;54.300;18.592;2024-03-07T08:51:32;10.10;;;4.72;;
67248;SDS011;63247;54.300;18.592;2024-03-07T08:53:57;8.87;;;3.90;;
67248;SDS011;63247;54.300;18.592;2024-03-07T08:56:24;8.60;;;3.40;;
67248;SDS011;63247;54.300;18.592;2024-03-07T08:58:49;7.93;;;3.60;;
67248;SDS011;63247;54.300;18.592;2024-03-07T09:01:15;7.57;;;2.93;;
67248;SDS011;63247;54.300;18.592;2024-03-07T09:03:40;9.80;;;3.75;;
67248;SDS011;63247;54.300;18.592;2024-03-07T09:06:05;10.43;;;3.80;;
67248;SDS011;63247;54.300;18.592;2024-03-07T09:08:31;8.40;;;4.10;;
67248;SDS011;63247;54.300;18.592;2024-03-07T09:10:57;6.68;;;3.50;;
67248;SDS011;63247;54.300;18.592;2024-03-07T09:13:23;7.80;;;3.13;;
67248;SDS011;63247;54.300;18.592;2024-03-07T09:15:48;10.20;;;3.80;;
67248;SDS011;63247;54.300;18.592;2024-03-07T09:18:14;9.03;;;3.63;;
67248;SDS011;63247;54.300;18.592;2024-03-07T09:20:40;8.07;;;3.90;;
67248;SDS011;63247;54.300;18.592;2024-03-07T09:23:06;8.32;;;4.50;;
67248;SDS011;63247;54.300;18.592;2024-03-07T09:25:31;8.80;;;4.30;;
67248;SDS011;63247;54.300;18.592;2024-03-07T09:28:00;7.50;;;3.10;;
67248;SDS011;63247;54.300;18.592;2024-03-07T09:30:25;8.63;;;3.70;;
67248;SDS011;63247;54.300;18.592;2024-03-07T09:32:52;8.23;;;3.30;;
67248;SDS011;63247;54.300;18.592;2024-03-07T09:35:20;5.40;;;2.67;;
67248;SDS011;63247;54.300;18.592;2024-03-07T09:37:46;6.03;;;2.95;;
67248;SDS011;63247;54.300;18.592;2024-03-07T09:40:11;6.75;;;3.30;;
67248;SDS011;63247;54.300;18.592;2024-03-07T09:42:41;8.73;;;3.97;;
67248;SDS011;63247;54.300;18.592;2024-03-07T09:45:16;7.95;;;3.28;;
67248;SDS011;63247;54.300;18.592;2024-03-07T09:47:44;6.20;;;3.20;;
67248;SDS011;63247;54.300;18.592;2024-03-07T09:50:18;8.45;;;3.72;;
67248;SDS011;63247;54.300;18.592;2024-03-07T09:52:46;9.18;;;3.67;;
67248;SDS011;63247;54.300;18.592;2024-03-07T09:55:15;7.82;;;3.28;;
67248;SDS011;63247;54.300;18.592;2024-03-07T09:57:41;10.32;;;4.80;;
67248;SDS011;63247;54.300;18.592;2024-03-07T10:00:07;14.13;;;6.60;;
67248;SDS011;63247;54.300;18.592;2024-03-07T10:02:38;9.68;;;3.50;;
67248;SDS011;63247;54.300;18.592;2024-03-07T10:05:06;10.90;;;4.70;;
67248;SDS011;63247;54.300;18.592;2024-03-07T10:07:36;8.93;;;3.60;;
67248;SDS011;63247;54.300;18.592;2024-03-07T10:10:01;9.57;;;3.73;;
67248;SDS011;63247;54.300;18.592;2024-03-07T10:12:35;9.35;;;3.95;;
67248;SDS011;63247;54.300;18.592;2024-03-07T10:15:03;7.10;;;3.15;;
67248;SDS011;63247;54.300;18.592;2024-03-07T10:17:30;7.15;;;3.30;;
67248;SDS011;63247;54.300;18.592;2024-03-07T10:19:57;6.80;;;2.77;;
67248;SDS011;63247;54.300;18.592;2024-03-07T10:22:25;10.80;;;3.55;;
67248;SDS011;63247;54.300;18.592;2024-03-07T10:24:55;9.33;;;3.97;;
67248;SDS011;63247;54.300;18.592;2024-03-07T10:27:22;12.27;;;3.92;;
67248;SDS011;63247;54.300;18.592;2024-03-07T10:29:48;7.07;;;3.22;;
67248;SDS011;63247;54.300;18.592;2024-03-07T10:32:20;8.98;;;3.17;;
67248;SDS011;63247;54.300;18.592;2024-03-07T10:34:50;8.27;;;3.28;;
67248;SDS011;63247;54.300;18.592;2024-03-07T10:37:16;9.00;;;2.60;;
67248;SDS011;63247;54.300;18.592;2024-03-07T10:39:45;6.00;;;2.90;;
67248;SDS011;63247;54.300;18.592;2024-03-07T10:42:14;8.23;;;3.20;;
67248;SDS011;63247;54.300;18.592;2024-03-07T10:44:44;8.77;;;3.53;;
67248;SDS011;63247;54.300;18.592;2024-03-07T10:47:15;6.75;;;3.20;;
67248;SDS011;63247;54.300;18.592;2024-03-07T10:49:48;8.47;;;3.03;;
67248;SDS011;63247;54.300;18.592;2024-03-07T10:52:38;9.07;;;3.22;;
67248;SDS011;63247;54.300;18.592;2024-03-07T10:58:14;8.07;;;2.95;;
67248;SDS011;63247;54.300;18.592;2024-03-07T11:00:49;9.57;;;3.20;;
67248;SDS011;63247;54.300;18.592;2024-03-07T11:03:18;8.37;;;3.40;;
67248;SDS011;63247;54.300;18.592;2024-03-07T11:05:45;8.57;;;3.97;;
67248;SDS011;63247;54.300;18.592;2024-03-07T11:08:12;8.95;;;3.30;;
67248;SDS011;63247;54.300;18.592;2024-03-07T11:10:39;7.55;;;2.88;;
67248;SDS011;63247;54.300;18.592;2024-03-07T11:13:05;8.10;;;3.10;;
67248;SDS011;63247;54.300;18.592;2024-03-07T11:15:34;7.57;;;3.20;;
67248;SDS011;63247;54.300;18.592;2024-03-07T11:18:00;7.70;;;3.08;;
67248;SDS011;63247;54.300;18.592;2024-03-07T11:20:26;10.07;;;3.53;;
67248;SDS011;63247;54.300;18.592;2024-03-07T11:22:59;10.55;;;3.63;;
67248;SDS011;63247;54.300;18.592;2024-03-07T11:25:24;7.87;;;3.10;;
67248;SDS011;63247;54.300;18.592;2024-03-07T11:27:58;8.63;;;3.33;;
67248;SDS011;63247;54.300;18.592;2024-03-07T11:30:25;7.93;;;2.85;;
67248;SDS011;63247;54.300;18.592;2024-03-07T11:32:51;8.50;;;3.03;;
67248;SDS011;63247;54.300;18.592;2024-03-07T11:35:21;8.70;;;3.13;;
67248;SDS011;63247;54.300;18.592;2024-03-07T11:38:07;9.65;;;3.40;;
67248;SDS011;63247;54.300;18.592;2024-03-07T11:43:00;8.10;;;2.97;;
67248;SDS011;63247;54.300;18.592;2024-03-07T11:45:29;8.02;;;2.70;;
67248;SDS011;63247;54.300;18.592;2024-03-07T11:47:58;7.20;;;3.10;;
67248;SDS011;63247;54.300;18.592;2024-03-07T11:50:29;9.60;;;3.17;;
67248;SDS011;63247;54.300;18.592;2024-03-07T11:53:00;10.25;;;3.53;;
67248;SDS011;63247;54.300;18.592;2024-03-07T11:55:26;8.18;;;3.15;;
67248;SDS011;63247;54.300;18.592;2024-03-07T11:57:53;7.72;;;3.00;;
67248;SDS011;63247;54.300;18.592;2024-03-07T12:00:19;8.80;;;3.00;;
67248;SDS011;63247;54.300;18.592;2024-03-07T12:02:46;9.52;;;3.50;;
67248;SDS011;63247;54.300;18.592;2024-03-07T12:05:13;10.45;;;3.40;;
67248;SDS011;63247;54.300;18.592;2024-03-07T12:07:42;7.43;;;2.55;;
67248;SDS011;63247;54.300;18.592;2024-03-07T12:10:09;7.73;;;3.33;;
67248;SDS011;63247;54.300;18.592;2024-03-07T12:12:35;11.25;;;3.33;;
67248;SDS011;63247;54.300;18.592;2024-03-07T12:15:03;9.38;;;3.55;;
67248;SDS011;63247;54.300;18.592;2024-03-07T12:17:34;8.80;;;3.40;;
67248;SDS011;63247;54.300;18.592;2024-03-07T12:20:00;9.40;;;3.37;;
67248;SDS011;63247;54.300;18.592;2024-03-07T12:22:43;12.02;;;4.15;;
67248;SDS011;63247;54.300;18.592;2024-03-07T12:25:10;19.75;;;7.28;;
67248;SDS011;63247;54.300;18.592;2024-03-07T12:27:39;12.47;;;4.30;;
67248;SDS011;63247;54.300;18.592;2024-03-07T12:30:14;10.02;;;4.07;;
67248;SDS011;63247;54.300;18.592;2024-03-07T12:32:50;9.50;;;3.88;;
67248;SDS011;63247;54.300;18.592;2024-03-07T12:35:15;12.13;;;3.23;;
67248;SDS011;63247;54.300;18.592;2024-03-07T12:37:41;9.23;;;3.75;;
67248;SDS011;63247;54.300;18.592;2024-03-07T12:40:13;11.53;;;4.20;;
67248;SDS011;63247;54.300;18.592;2024-03-07T12:42:47;8.20;;;3.53;;
67248;SDS011;63247;54.300;18.592;2024-03-07T12:45:13;12.23;;;4.13;;
67248;SDS011;63247;54.300;18.592;2024-03-07T12:47:43;10.23;;;3.40;;
67248;SDS011;63247;54.300;18.592;2024-03-07T12:50:09;10.77;;;4.20;;
67248;SDS011;63247;54.300;18.592;2024-03-07T12:52:35;12.57;;;3.23;;
67248;SDS011;63247;54.300;18.592;2024-03-07T12:55:01;8.38;;;3.47;;
67248;SDS011;63247;54.300;18.592;2024-03-07T12:57:26;11.13;;;3.87;;
67248;SDS011;63247;54.300;18.592;2024-03-07T12:59:53;12.15;;;3.88;;
67248;SDS011;63247;54.300;18.592;2024-03-07T13:02:18;11.20;;;3.93;;
67248;SDS011;63247;54.300;18.592;2024-03-07T13:04:43;12.63;;;4.33;;
67248;SDS011;63247;54.300;18.592;2024-03-07T13:07:10;8.60;;;2.95;;
67248;SDS011;63247;54.300;18.592;2024-03-07T13:09:35;9.25;;;4.07;;
67248;SDS011;63247;54.300;18.592;2024-03-07T13:12:02;10.85;;;3.63;;
67248;SDS011;63247;54.300;18.592;2024-03-07T13:14:28;10.25;;;3.85;;
67248;SDS011;63247;54.300;18.592;2024-03-07T13:17:02;9.38;;;3.70;;
67248;SDS011;63247;54.300;18.592;2024-03-07T13:19:29;7.20;;;3.07;;
67248;SDS011;63247;54.300;18.592;2024-03-07T13:21:55;8.25;;;3.55;;
67248;SDS011;63247;54.300;18.592;2024-03-07T13:24:21;9.60;;;3.40;;
67248;SDS011;63247;54.300;18.592;2024-03-07T13:26:47;11.13;;;3.80;;
67248;SDS011;63247;54.300;18.592;2024-03-07T13:29:13;11.63;;;3.30;;
67248;SDS011;63247;54.300;18.592;2024-03-07T13:31:39;8.00;;;3.20;;
67248;SDS011;63247;54.300;18.592;2024-03-07T13:34:07;11.25;;;4.45;;
67248;SDS011;63247;54.300;18.592;2024-03-07T13:36:42;12.48;;;4.47;;
67248;SDS011;63247;54.300;18.592;2024-03-07T13:39:09;13.35;;;4.22;;
67248;SDS011;63247;54.300;18.592;2024-03-07T13:41:39;9.20;;;3.80;;
67248;SDS011;63247;54.300;18.592;2024-03-07T13:44:07;11.70;;;3.57;;
67248;SDS011;63247;54.300;18.592;2024-03-07T13:46:32;9.52;;;3.28;;
67248;SDS011;63247;54.300;18.592;2024-03-07T13:49:01;9.18;;;3.08;;
67248;SDS011;63247;54.300;18.592;2024-03-07T13:51:41;8.95;;;3.38;;
67248;SDS011;63247;54.300;18.592;2024-03-07T13:54:28;12.90;;;4.07;;
67248;SDS011;63247;54.300;18.592;2024-03-07T14:22:02;9.57;;;3.33;;
67248;SDS011;63247;54.300;18.592;2024-03-07T14:32:24;9.82;;;3.30;;
67248;SDS011;63247;54.300;18.592;2024-03-07T14:35:23;13.93;;;4.35;;
67248;SDS011;63247;54.300;18.592;2024-03-07T14:38:39;15.20;;;3.23;;
67248;SDS011;63247;54.300;18.592;2024-03-07T14:40:38;16.77;;;4.82;;
67248;SDS011;63247;54.300;18.592;2024-03-07T14:43:04;12.82;;;4.28;;
67248;SDS011;63247;54.300;18.592;2024-03-07T14:45:38;11.95;;;3.75;;
67248;SDS011;63247;54.300;18.592;2024-03-07T14:48:05;13.53;;;4.30;;
67248;SDS011;63247;54.300;18.592;2024-03-07T14:50:34;12.10;;;5.05;;
67248;SDS011;63247;54.300;18.592;2024-03-07T14:53:03;14.95;;;5.65;;
67248;SDS011;63247;54.300;18.592;2024-03-07T14:55:29;16.55;;;5.57;;
67248;SDS011;63247;54.300;18.592;2024-03-07T14:57:59;12.50;;;4.30;;